createdAt,value
2018-04-08T00:00:48.252Z,8.70
2018-04-08T00:01:52.827Z,8.64
2018-04-08T00:02:57.732Z,8.62
2018-04-08T00:04:02.585Z,8.58
2018-04-08T00:05:07.191Z,8.58
2018-04-08T00:06:12.062Z,8.53
2018-04-08T00:07:16.936Z,8.54
2018-04-08T00:08:21.512Z,8.54
2018-04-08T00:09:26.385Z,8.49
2018-04-08T00:10:30.980Z,8.45
2018-04-08T00:11:35.848Z,8.40
2018-04-08T00:12:43.349Z,8.36
2018-04-08T00:13:48.263Z,8.27
2018-04-08T00:14:59.141Z,8.17
2018-04-08T00:16:04.699Z,8.15
2018-04-08T00:17:09.551Z,8.09
2018-04-08T00:18:14.396Z,8.14
2018-04-08T00:19:19.248Z,8.14
2018-04-08T00:20:24.440Z,8.17
2018-04-08T00:21:29.366Z,8.12
2018-04-08T00:22:34.243Z,8.12
2018-04-08T00:23:38.539Z,8.18
2018-04-08T00:24:43.398Z,8.19
2018-04-08T00:25:48.741Z,8.16
2018-04-08T00:26:53.747Z,8.10
2018-04-08T00:27:58.604Z,8.15
2018-04-08T00:29:03.534Z,8.13
2018-04-08T00:30:09.222Z,8.10
2018-04-08T00:31:14.718Z,8.06
2018-04-08T00:32:19.679Z,8.05
2018-04-08T00:33:24.555Z,8.04
2018-04-08T00:34:29.435Z,8.03
2018-04-08T00:35:36.620Z,8.05
2018-04-08T00:36:46.370Z,8.08
2018-04-08T00:37:51.237Z,8.12
2018-04-08T00:38:56.087Z,8.09
2018-04-08T00:40:00.995Z,8.08
2018-04-08T00:41:07.125Z,8.12
2018-04-08T00:42:11.717Z,8.11
2018-04-08T00:43:16.618Z,8.11
2018-04-08T00:44:21.563Z,8.09
2018-04-08T00:45:26.415Z,8.07
2018-04-08T00:46:31.262Z,7.96
2018-04-08T00:47:36.127Z,7.92
2018-04-08T00:48:40.769Z,7.83
2018-04-08T00:49:45.385Z,7.72
2018-04-08T00:50:50.245Z,7.68
2018-04-08T00:51:55.199Z,7.61
2018-04-08T00:52:59.955Z,7.61
2018-04-08T00:54:10.342Z,7.57
2018-04-08T00:55:14.914Z,7.52
2018-04-08T00:56:27.397Z,7.52
2018-04-08T00:57:31.791Z,7.52
2018-04-08T00:58:36.137Z,7.54
2018-04-08T00:59:40.460Z,7.55
2018-04-08T01:00:45.155Z,7.52
2018-04-08T01:01:48.571Z,7.52
2018-04-08T01:02:52.548Z,7.44
2018-04-08T01:03:57.180Z,7.43
2018-04-08T01:05:02.323Z,7.41
2018-04-08T01:06:06.760Z,7.49
2018-04-08T01:07:11.087Z,7.48
2018-04-08T01:08:15.456Z,7.51
2018-04-08T01:09:25.518Z,7.48
2018-04-08T01:10:29.836Z,7.43
2018-04-08T01:11:34.983Z,7.35
2018-04-08T01:12:40.518Z,7.24
2018-04-08T01:13:44.618Z,7.23
2018-04-08T01:14:49.544Z,7.33
2018-04-08T01:15:53.868Z,7.33
2018-04-08T01:16:58.916Z,7.37
2018-04-08T01:18:04.374Z,7.38
2018-04-08T01:25:30.699Z,7.02
2018-04-08T01:26:39.850Z,6.98
2018-04-08T01:27:44.595Z,6.97
2018-04-08T01:28:50.478Z,6.96
2018-04-08T01:29:55.420Z,7.01
2018-04-08T01:31:01.082Z,7.03
2018-04-08T01:32:06.205Z,7.02
2018-04-08T01:33:11.783Z,7.02
2018-04-08T01:34:16.779Z,7.04
2018-04-08T01:35:22.039Z,7.01
2018-04-08T01:36:26.699Z,7.03
2018-04-08T01:37:32.051Z,6.93
2018-04-08T01:38:41.317Z,6.88
2018-04-08T01:39:46.249Z,6.80
2018-04-08T01:40:51.000Z,6.82
2018-04-08T01:41:56.037Z,6.82
2018-04-08T01:43:01.960Z,6.80
2018-04-08T01:44:07.352Z,6.85
2018-04-08T01:45:12.507Z,6.85
2018-04-08T01:46:17.590Z,6.82
2018-04-08T01:47:22.675Z,6.79
2018-04-08T01:48:27.651Z,6.82
2018-04-08T01:49:32.774Z,6.79
2018-04-08T01:50:37.823Z,6.77
2018-04-08T01:51:42.962Z,6.73
2018-04-08T01:52:48.195Z,6.79
2018-04-08T01:53:53.183Z,6.83
2018-04-08T01:54:58.159Z,6.79
2018-04-08T01:56:03.238Z,6.77
2018-04-08T01:57:08.110Z,6.79
2018-04-08T01:58:13.008Z,6.74
2018-04-08T01:59:17.981Z,6.68
2018-04-08T02:00:23.071Z,6.67
2018-04-08T02:01:27.928Z,6.68
2018-04-08T02:02:33.515Z,6.65
2018-04-08T02:03:38.201Z,6.70
2018-04-08T02:04:48.083Z,6.77
2018-04-08T02:05:52.992Z,6.78
2018-04-08T02:06:57.601Z,6.74
2018-04-08T02:08:03.028Z,6.73
2018-04-08T02:09:07.967Z,6.75
2018-04-08T02:10:13.154Z,6.69
2018-04-08T02:11:18.111Z,6.70
2018-04-08T02:12:23.184Z,6.68
2018-04-08T02:13:28.273Z,6.73
2018-04-08T02:14:33.743Z,6.68
2018-04-08T02:15:38.646Z,6.65
2018-04-08T02:16:43.656Z,6.67
2018-04-08T02:17:48.872Z,6.59
2018-04-08T02:18:54.604Z,6.60
2018-04-08T02:19:59.799Z,6.59
2018-04-08T02:21:04.884Z,6.58
2018-04-08T02:22:09.765Z,6.57
2018-04-08T02:23:14.739Z,6.63
2018-04-08T02:24:19.736Z,6.56
2018-04-08T02:25:24.811Z,6.52
2018-04-08T02:26:29.802Z,6.53
2018-04-08T02:27:34.771Z,6.48
2018-04-08T02:28:39.750Z,6.51
2018-04-08T02:29:45.067Z,6.42
2018-04-08T02:30:50.128Z,6.39
2018-04-08T02:31:55.237Z,6.41
2018-04-08T02:33:00.318Z,6.35
2018-04-08T02:34:05.710Z,6.31
2018-04-08T02:35:10.764Z,6.38
2018-04-08T02:36:15.858Z,6.45
2018-04-08T02:37:21.648Z,6.46
2018-04-08T02:38:26.760Z,6.41
2018-04-08T02:39:31.465Z,6.37
2018-04-08T02:40:36.401Z,6.27
2018-04-08T02:41:41.581Z,6.23
2018-04-08T02:42:49.017Z,6.21
2018-04-08T02:43:53.996Z,6.24
2018-04-08T02:44:58.978Z,6.18
2018-04-08T02:46:03.707Z,6.22
2018-04-08T02:47:08.634Z,6.23
2018-04-08T02:48:13.673Z,6.21
2018-04-08T02:49:18.794Z,6.14
2018-04-08T02:50:23.784Z,6.10
2018-04-08T02:51:28.868Z,6.07
2018-04-08T02:52:33.416Z,6.08
2018-04-08T02:53:38.428Z,6.07
2018-04-08T02:54:43.280Z,6.02
2018-04-08T02:55:48.499Z,6.04
2018-04-08T02:56:53.579Z,6.09
2018-04-08T02:57:58.782Z,6.09
2018-04-08T02:59:04.447Z,6.09
2018-04-08T03:00:10.468Z,6.04
2018-04-08T03:01:15.547Z,6.04
2018-04-08T03:02:20.632Z,6.05
2018-04-08T03:03:25.700Z,6.03
2018-04-08T03:04:30.926Z,6.01
2018-04-08T03:05:35.591Z,5.98
2018-04-08T03:06:40.552Z,5.94
2018-04-08T03:07:45.760Z,5.97
2018-04-08T03:08:50.773Z,5.92
2018-04-08T03:09:56.057Z,5.98
2018-04-08T03:11:00.993Z,6.03
2018-04-08T03:12:06.083Z,5.99
2018-04-08T03:13:11.051Z,5.95
2018-04-08T03:14:16.164Z,5.93
2018-04-08T03:15:21.325Z,5.90
2018-04-08T03:16:26.783Z,5.88
2018-04-08T03:17:31.691Z,5.80
2018-04-08T03:18:36.941Z,5.79
2018-04-08T03:19:42.072Z,5.68
2018-04-08T03:20:47.155Z,5.63
2018-04-08T03:21:52.133Z,5.55
2018-04-08T03:22:57.784Z,5.57
2018-04-08T03:24:07.430Z,5.59
2018-04-08T03:25:12.327Z,5.60
2018-04-08T03:26:17.387Z,5.64
2018-04-08T03:27:22.355Z,5.65
2018-04-08T03:28:27.351Z,5.68
2018-04-08T03:29:32.447Z,5.70
2018-04-08T03:30:37.508Z,5.62
2018-04-08T03:31:42.624Z,5.57
2018-04-08T03:32:48.071Z,5.55
2018-04-08T03:33:52.765Z,5.57
2018-04-08T03:34:58.147Z,5.62
2018-04-08T03:36:03.804Z,5.68
2018-04-08T03:37:08.835Z,5.67
2018-04-08T03:38:13.947Z,5.63
2018-04-08T03:39:19.828Z,5.54
2018-04-08T03:40:25.188Z,5.54
2018-04-08T03:41:30.184Z,5.58
2018-04-08T03:42:35.302Z,5.60
2018-04-08T03:43:40.695Z,5.71
2018-04-08T03:44:50.491Z,5.77
2018-04-08T03:45:56.495Z,5.66
2018-04-08T03:47:01.547Z,5.55
2018-04-08T03:48:06.426Z,5.52
2018-04-08T03:49:11.526Z,5.55
2018-04-08T03:50:16.701Z,5.60
2018-04-08T03:51:22.236Z,5.61
2018-04-08T03:52:27.764Z,5.56
2018-04-08T03:53:33.591Z,5.49
2018-04-08T03:54:38.476Z,5.45
2018-04-08T03:55:43.764Z,5.37
2018-04-08T03:56:50.448Z,5.37
2018-04-08T03:57:59.553Z,5.32
2018-04-08T03:59:04.409Z,5.25
2018-04-08T04:00:09.500Z,5.22
2018-04-08T04:01:14.260Z,5.17
2018-04-08T04:02:19.042Z,5.19
2018-04-08T04:03:24.044Z,5.22
2018-04-08T04:04:29.146Z,5.24
2018-04-08T04:05:33.899Z,5.23
2018-04-08T04:06:41.672Z,5.26
2018-04-08T04:07:46.519Z,5.22
2018-04-08T04:08:51.519Z,5.16
2018-04-08T04:09:57.146Z,5.14
2018-04-08T04:11:01.968Z,5.07
2018-04-08T04:12:06.636Z,4.98
2018-04-08T04:13:11.414Z,5.03
2018-04-08T04:14:17.119Z,5.04
2018-04-08T04:15:22.441Z,5.07
2018-04-08T04:16:27.176Z,5.13
2018-04-08T04:17:32.186Z,5.13
2018-04-08T04:18:42.563Z,5.06
2018-04-08T04:19:53.022Z,5.09
2018-04-08T04:21:03.618Z,5.05
2018-04-08T04:22:13.784Z,4.97
2018-04-08T04:23:23.879Z,4.99
2018-04-08T04:24:33.748Z,4.94
2018-04-08T04:27:08.674Z,4.84
2018-04-08T04:28:13.686Z,4.86
2018-04-08T04:29:18.679Z,4.88
2018-04-08T04:30:23.779Z,4.94
2018-04-08T04:31:29.723Z,4.94
2018-04-08T04:32:34.435Z,5.00
2018-04-08T04:33:39.544Z,5.03
2018-04-08T04:34:44.739Z,5.02
2018-04-08T04:35:49.491Z,4.99
2018-04-08T04:36:54.150Z,5.07
2018-04-08T04:37:59.156Z,5.17
2018-04-08T04:39:03.551Z,5.22
2018-04-08T04:40:08.210Z,5.14
2018-04-08T04:41:13.277Z,5.10
2018-04-08T04:42:18.381Z,5.05
2018-04-08T04:43:23.456Z,5.09
2018-04-08T04:44:28.626Z,5.09
2018-04-08T04:45:33.722Z,5.05
2018-04-08T04:46:38.342Z,5.12
2018-04-08T04:47:43.504Z,5.13
2018-04-08T04:48:48.575Z,5.16
2018-04-08T04:49:53.652Z,5.19
2018-04-08T04:50:58.729Z,5.18
2018-04-08T04:52:03.755Z,5.19
2018-04-08T04:53:08.682Z,5.24
2018-04-08T04:54:13.674Z,5.30
2018-04-08T04:55:18.658Z,5.34
2018-04-08T04:56:24.075Z,5.29
2018-04-08T04:57:28.948Z,5.29
2018-04-08T04:58:33.911Z,5.23
2018-04-08T04:59:38.891Z,5.24
2018-04-08T05:00:43.759Z,5.29
2018-04-08T05:01:48.748Z,5.32
2018-04-08T05:02:53.612Z,5.37
2018-04-08T05:03:58.379Z,5.43
2018-04-08T05:05:03.389Z,5.48
2018-04-08T05:06:08.371Z,5.51
2018-04-08T05:07:13.351Z,5.62
2018-04-08T05:08:27.093Z,5.72
2018-04-08T05:09:32.560Z,5.65
2018-04-08T05:10:37.828Z,5.66
2018-04-08T05:11:42.800Z,5.69
2018-04-08T05:12:47.873Z,5.72
2018-04-08T05:13:52.973Z,5.77
2018-04-08T05:14:58.475Z,5.77
2018-04-08T05:16:47.750Z,5.84
2018-04-08T05:17:52.947Z,5.89
2018-04-08T05:18:58.506Z,6.01
2018-04-08T05:20:03.154Z,6.03
2018-04-08T05:21:08.092Z,6.02
2018-04-08T05:22:13.160Z,6.06
2018-04-08T05:23:18.145Z,6.11
2018-04-08T05:24:23.229Z,6.18
2018-04-08T05:25:28.223Z,6.24
2018-04-08T05:26:33.298Z,6.32
2018-04-08T05:27:38.988Z,6.47
2018-04-08T05:28:43.983Z,6.58
2018-04-08T05:29:49.383Z,6.70
2018-04-08T05:30:55.090Z,6.81
2018-04-08T05:32:00.145Z,6.86
2018-04-08T05:33:05.124Z,6.90
2018-04-08T05:34:10.241Z,6.95
2018-04-08T05:35:15.291Z,7.07
2018-04-08T05:36:20.752Z,7.07
2018-04-08T05:37:25.879Z,7.11
2018-04-08T05:38:30.953Z,7.20
2018-04-08T05:39:36.042Z,7.29
2018-04-08T05:40:41.653Z,7.37
2018-04-08T05:41:47.748Z,7.48
2018-04-08T05:42:57.615Z,7.47
2018-04-08T05:44:03.669Z,7.63
2018-04-08T05:45:09.643Z,7.75
2018-04-08T05:46:16.511Z,7.85
2018-04-08T05:47:22.906Z,7.91
2018-04-08T05:48:28.475Z,8.01
2018-04-08T05:49:33.235Z,8.05
2018-04-08T05:50:43.364Z,8.18
2018-04-08T05:51:48.480Z,8.30
2018-04-08T05:52:53.299Z,8.41
2018-04-08T05:53:59.024Z,8.44
2018-04-08T05:55:03.999Z,8.48
2018-04-08T05:56:09.284Z,8.61
2018-04-08T05:57:14.139Z,8.70
2018-04-08T05:58:19.764Z,8.81
2018-04-08T05:59:24.745Z,8.90
2018-04-08T06:00:30.210Z,8.96
2018-04-08T06:01:34.886Z,9.03
2018-04-08T06:02:39.799Z,9.13
2018-04-08T06:03:45.516Z,9.22
2018-04-08T06:04:50.592Z,9.37
2018-04-08T06:05:55.909Z,9.42
2018-04-08T06:07:01.208Z,9.49
2018-04-08T06:08:07.428Z,9.54
2018-04-08T06:09:12.874Z,9.65
2018-04-08T06:10:17.951Z,9.78
2018-04-08T06:11:26.956Z,9.85
2018-04-08T06:12:31.850Z,10.02
2018-04-08T06:13:37.102Z,10.09
2018-04-08T06:14:43.417Z,10.24
2018-04-08T06:15:52.258Z,10.37
2018-04-08T06:16:57.767Z,10.48
2018-04-08T06:18:02.614Z,10.58
2018-04-08T06:19:07.763Z,10.69
2018-04-08T06:20:15.075Z,10.73
2018-04-08T06:21:21.326Z,10.83
2018-04-08T06:22:28.122Z,10.96
2018-04-08T06:23:33.933Z,11.02
2018-04-08T06:24:38.889Z,11.16
2018-04-08T06:25:44.589Z,11.18
2018-04-08T06:26:50.849Z,11.23
2018-04-08T06:27:55.983Z,11.29
2018-04-08T06:29:01.272Z,11.33
2018-04-08T06:30:07.659Z,11.36
2018-04-08T06:31:14.056Z,11.37
2018-04-08T06:32:20.719Z,11.48
2018-04-08T06:33:27.997Z,11.57
2018-04-08T06:34:33.395Z,11.65
2018-04-08T06:35:38.525Z,11.71
2018-04-08T06:36:43.342Z,11.78
2018-04-08T06:37:48.705Z,11.76
2018-04-08T06:38:54.095Z,11.85
2018-04-08T06:39:59.273Z,11.87
2018-04-08T06:41:04.360Z,11.93
2018-04-08T06:42:09.444Z,11.98
2018-04-08T06:43:15.404Z,12.04
2018-04-08T06:44:20.838Z,12.11
2018-04-08T06:45:29.847Z,12.21
2018-04-08T06:46:38.342Z,12.30
2018-04-08T06:47:46.196Z,12.38
2018-04-08T06:48:52.299Z,12.47
2018-04-08T06:49:59.330Z,12.51
2018-04-08T06:51:06.081Z,12.55
2018-04-08T06:52:12.988Z,12.59
2018-04-08T06:53:21.892Z,12.66
2018-04-08T06:54:34.476Z,12.69
2018-04-08T06:55:41.090Z,12.70
2018-04-08T06:56:48.557Z,12.75
2018-04-08T06:57:55.440Z,12.80
2018-04-08T06:59:02.529Z,12.80
2018-04-08T07:00:09.628Z,12.81
2018-04-08T07:01:16.086Z,12.84
2018-04-08T07:02:22.542Z,12.77
2018-04-08T07:03:28.002Z,12.79
2018-04-08T07:04:33.076Z,12.78
2018-04-08T07:05:41.657Z,12.81
2018-04-08T07:06:48.361Z,12.83
2018-04-08T07:07:54.950Z,12.87
2018-04-08T07:09:02.803Z,12.95
2018-04-08T07:10:10.366Z,13.00
2018-04-08T07:11:17.036Z,13.09
2018-04-08T07:12:22.857Z,13.06
2018-04-08T07:13:32.214Z,13.05
2018-04-08T07:14:44.368Z,13.13
2018-04-08T07:15:50.299Z,13.04
2018-04-08T07:16:58.828Z,13.13
2018-04-08T07:18:03.816Z,13.18
2018-04-08T07:19:11.693Z,13.23
2018-04-08T07:20:16.984Z,13.29
2018-04-08T07:21:23.413Z,13.34
2018-04-08T07:23:04.411Z,13.49
2018-04-08T07:24:10.087Z,13.51
2018-04-08T07:25:15.071Z,13.58
2018-04-08T07:26:20.151Z,13.66
2018-04-08T07:27:25.142Z,13.72
2018-04-08T07:28:30.329Z,13.81
2018-04-08T07:29:35.521Z,13.85
2018-04-08T07:40:26.446Z,17.87
2018-04-08T07:41:33.189Z,17.67
2018-04-08T07:42:39.453Z,17.07
2018-04-08T07:43:45.696Z,16.46
2018-04-08T07:44:52.785Z,15.77
2018-04-08T07:45:59.132Z,15.48
2018-04-08T07:47:05.452Z,14.99
2018-04-08T07:48:11.740Z,14.55
2018-04-08T07:49:18.082Z,14.25
2018-04-08T07:50:24.355Z,14.33
2018-04-08T07:51:30.696Z,14.38
2018-04-08T07:52:37.951Z,14.45
2018-04-08T07:53:44.008Z,14.41
2018-04-08T07:54:50.342Z,14.41
2018-04-08T07:55:56.649Z,14.39
2018-04-08T07:57:02.967Z,14.35
2018-04-08T07:58:09.280Z,14.32
2018-04-08T07:59:15.565Z,14.36
2018-04-08T08:00:21.800Z,14.37
2018-04-08T08:01:29.273Z,14.46
2018-04-08T08:02:35.493Z,14.44
2018-04-08T08:03:41.805Z,14.44
2018-04-08T08:04:48.076Z,14.51
2018-04-08T08:05:54.384Z,14.55
2018-04-08T08:07:00.694Z,14.57
2018-04-08T08:08:06.976Z,14.54
2018-04-08T08:09:13.272Z,14.61
2018-04-08T08:10:20.141Z,14.49
2018-04-08T08:11:26.499Z,14.53
2018-04-08T08:12:33.470Z,14.55
2018-04-08T08:13:39.795Z,14.60
2018-04-08T08:14:46.106Z,14.63
2018-04-08T08:15:52.438Z,14.70
2018-04-08T08:17:01.171Z,14.75
2018-04-08T08:18:09.929Z,14.74
2018-04-08T08:19:16.271Z,14.75
2018-04-08T08:20:22.572Z,14.83
2018-04-08T08:21:28.887Z,14.91
2018-04-08T08:22:34.975Z,14.98
2018-04-08T08:23:41.224Z,15.14
2018-04-08T08:24:47.648Z,15.24
2018-04-08T08:25:54.420Z,15.15
2018-04-08T08:27:00.877Z,15.28
2018-04-08T08:28:07.136Z,15.37
2018-04-08T08:29:13.353Z,15.25
2018-04-08T08:30:19.698Z,15.30
2018-04-08T08:31:25.765Z,15.41
2018-04-08T08:32:32.008Z,15.57
2018-04-08T08:33:38.333Z,15.55
2018-04-08T08:34:44.610Z,15.60
2018-04-08T08:35:50.935Z,15.48
2018-04-08T08:36:57.232Z,15.46
2018-04-08T08:38:03.371Z,15.59
2018-04-08T08:39:10.141Z,15.64
2018-04-08T08:40:16.376Z,15.71
2018-04-08T08:41:22.711Z,15.79
2018-04-08T08:42:29.015Z,15.77
2018-04-08T08:43:35.992Z,15.76
2018-04-08T08:44:42.464Z,15.85
2018-04-08T08:45:48.776Z,15.99
2018-04-08T08:46:55.740Z,16.08
2018-04-08T08:48:02.012Z,16.08
2018-04-08T08:49:08.206Z,16.11
2018-04-08T08:50:14.523Z,16.25
2018-04-08T08:51:20.848Z,16.33
2018-04-08T08:52:27.153Z,16.33
2018-04-08T08:53:33.568Z,16.43
2018-04-08T08:54:40.584Z,16.52
2018-04-08T08:55:47.428Z,16.64
2018-04-08T08:56:58.827Z,16.65
2018-04-08T08:58:06.154Z,16.78
2018-04-08T08:59:12.656Z,16.69
2018-04-08T09:00:18.945Z,16.76
2018-04-08T09:01:25.174Z,16.86
2018-04-08T09:02:31.439Z,16.91
2018-04-08T09:03:37.623Z,16.91
2018-04-08T09:04:44.036Z,16.85
2018-04-08T09:05:50.363Z,16.84
2018-04-08T09:06:56.667Z,16.78
2018-04-08T09:08:02.968Z,16.71
2018-04-08T09:09:09.271Z,16.67
2018-04-08T09:10:15.673Z,16.78
2018-04-08T09:11:21.917Z,16.85
2018-04-08T09:12:28.242Z,16.94
2018-04-08T09:13:34.550Z,16.99
2018-04-08T09:14:40.604Z,17.19
2018-04-08T09:15:46.633Z,17.28
2018-04-08T09:16:52.633Z,17.21
2018-04-08T09:18:04.344Z,17.11
2018-04-08T09:19:30.723Z,17.07
2018-04-08T09:22:16.183Z,17.29
2018-04-08T09:24:58.144Z,17.22
2018-04-08T09:26:06.144Z,17.41
2018-04-08T09:27:12.247Z,17.48
2018-04-08T09:28:19.025Z,17.58
2018-04-08T09:29:25.491Z,17.66
2018-04-08T09:30:31.736Z,17.83
2018-04-08T09:31:37.803Z,17.86
2018-04-08T09:32:44.092Z,17.78
2018-04-08T09:33:50.110Z,17.78
2018-04-08T09:34:56.218Z,17.68
2018-04-08T09:36:02.924Z,17.74
2018-04-08T09:37:08.665Z,17.72
2018-04-08T09:38:14.864Z,17.73
2018-04-08T09:39:20.856Z,17.65
2018-04-08T09:40:27.101Z,17.61
2018-04-08T09:41:33.325Z,17.74
2018-04-08T09:42:39.602Z,17.77
2018-04-08T09:43:45.807Z,17.78
2018-04-08T09:44:52.041Z,17.83
2018-04-08T09:45:58.249Z,17.90
2018-04-08T09:47:04.453Z,17.85
2018-04-08T09:48:10.661Z,17.85
2018-04-08T09:49:16.880Z,18.04
2018-04-08T09:50:23.511Z,18.07
2018-04-08T09:51:29.808Z,18.08
2018-04-08T09:52:36.088Z,18.15
2018-04-08T09:53:42.332Z,18.03
2018-04-08T09:54:48.411Z,18.11
2018-04-08T09:55:54.420Z,18.04
2018-04-08T09:57:00.470Z,18.02
2018-04-08T09:58:06.528Z,18.01
2018-04-08T09:59:12.655Z,17.97
2018-04-08T10:00:29.697Z,18.04
2018-04-08T10:01:43.422Z,18.25
2018-04-08T10:04:24.699Z,18.60
2018-04-08T10:05:30.757Z,18.71
2018-04-08T10:06:37.190Z,18.62
2018-04-08T10:07:43.405Z,18.64
2018-04-08T10:08:49.741Z,18.68
2018-04-08T10:09:56.058Z,18.67
2018-04-08T10:11:02.332Z,18.50
2018-04-08T10:12:08.556Z,18.45
2018-04-08T10:13:14.838Z,18.59
2018-04-08T10:14:21.048Z,18.66
2018-04-08T10:15:27.269Z,18.77
2018-04-08T10:16:33.493Z,18.77
2018-04-08T10:17:39.770Z,18.88
2018-04-08T10:18:46.089Z,18.93
2018-04-08T10:19:52.204Z,18.93
2018-04-08T10:20:58.178Z,18.88
2018-04-08T10:22:04.198Z,18.94
2018-04-08T10:23:10.203Z,18.96
2018-04-08T10:24:16.229Z,18.94
2018-04-08T10:25:23.463Z,18.78
2018-04-08T10:26:29.677Z,18.88
2018-04-08T10:27:36.001Z,18.91
2018-04-08T10:28:42.408Z,18.89
2018-04-08T10:29:48.652Z,18.69
2018-04-08T10:30:55.245Z,18.70
2018-04-08T10:32:01.665Z,18.64
2018-04-08T10:33:07.968Z,18.76
2018-04-08T10:34:14.169Z,18.64
2018-04-08T10:35:20.387Z,18.62
2018-04-08T10:36:26.610Z,18.66
2018-04-08T10:37:32.881Z,18.75
2018-04-08T10:38:39.092Z,18.82
2018-04-08T10:39:45.434Z,18.83
2018-04-08T10:40:51.724Z,18.81
2018-04-08T10:41:58.136Z,18.59
2018-04-08T10:43:04.660Z,18.50
2018-04-08T10:44:10.861Z,18.57
2018-04-08T10:45:17.144Z,18.72
2018-04-08T10:46:23.398Z,18.79
2018-04-08T10:47:29.364Z,18.85
2018-04-08T10:48:35.620Z,18.84
2018-04-08T10:49:41.932Z,18.93
2018-04-08T10:50:48.023Z,18.95
2018-04-08T10:51:54.012Z,18.98
2018-04-08T10:53:00.353Z,19.03
2018-04-08T10:54:06.572Z,19.20
2018-04-08T10:55:12.881Z,19.18
2018-04-08T10:56:19.213Z,19.32
2018-04-08T10:57:25.488Z,19.39
2018-04-08T10:58:31.703Z,19.55
2018-04-08T10:59:38.028Z,19.58
2018-04-08T11:00:44.351Z,19.73
2018-04-08T11:01:50.673Z,19.70
2018-04-08T11:02:57.035Z,19.75
2018-04-08T11:04:03.295Z,19.78
2018-04-08T11:05:15.149Z,19.80
2018-04-08T11:06:21.379Z,19.75
2018-04-08T11:07:27.623Z,19.68
2018-04-08T11:08:33.896Z,19.65
2018-04-08T11:09:40.253Z,19.45
2018-04-08T11:10:46.480Z,19.39
2018-04-08T11:11:52.560Z,19.33
2018-04-08T11:12:58.539Z,19.28
2018-04-08T11:14:04.893Z,19.40
2018-04-08T11:15:11.788Z,19.57
2018-04-08T11:16:17.901Z,19.79
2018-04-08T11:17:24.260Z,19.85
2018-04-08T11:18:30.667Z,19.98
2018-04-08T11:19:37.079Z,20.05
2018-04-08T11:20:43.389Z,20.00
2018-04-08T11:21:49.712Z,19.99
2018-04-08T11:22:56.023Z,19.90
2018-04-08T11:24:02.340Z,19.81
2018-04-08T11:25:13.419Z,19.74
2018-04-08T11:26:21.051Z,19.72
2018-04-08T11:27:28.359Z,19.84
2018-04-08T11:28:34.832Z,19.77
2018-04-08T11:29:40.921Z,19.78
2018-04-08T11:30:47.265Z,19.96
2018-04-08T11:31:53.568Z,20.01
2018-04-08T11:32:59.984Z,20.05
2018-04-08T11:34:06.327Z,19.89
2018-04-08T11:35:12.612Z,19.50
2018-04-08T11:36:18.916Z,19.39
2018-04-08T11:37:24.915Z,19.35
2018-04-08T11:38:31.269Z,19.35
2018-04-08T11:39:37.532Z,19.41
2018-04-08T11:40:43.865Z,19.53
2018-04-08T11:41:51.169Z,19.66
2018-04-08T11:42:57.512Z,19.85
2018-04-08T11:44:04.444Z,20.01
2018-04-08T11:45:10.739Z,20.15
2018-04-08T11:46:16.956Z,20.29
2018-04-08T11:47:24.911Z,20.35
2018-04-08T11:48:36.398Z,20.33
2018-04-08T11:49:42.512Z,20.21
2018-04-08T11:50:48.861Z,20.19
2018-04-08T11:51:55.482Z,20.18
2018-04-08T11:53:01.796Z,20.21
2018-04-08T11:54:08.172Z,20.21
2018-04-08T11:55:14.407Z,20.33
2018-04-08T11:56:20.741Z,20.35
2018-04-08T11:57:27.045Z,20.34
2018-04-08T11:58:33.116Z,20.39
2018-04-08T11:59:39.109Z,20.42
2018-04-08T12:00:45.225Z,20.33
2018-04-08T12:01:51.937Z,20.32
2018-04-08T12:02:57.958Z,20.29
2018-04-08T12:04:04.260Z,20.34
2018-04-08T12:05:10.273Z,20.26
2018-04-08T12:06:16.578Z,20.33
2018-04-08T12:07:22.703Z,20.41
2018-04-08T12:08:29.040Z,20.52
2018-04-08T12:09:36.548Z,20.61
2018-04-08T12:10:42.827Z,20.65
2018-04-08T12:11:49.126Z,20.58
2018-04-08T12:12:55.412Z,20.63
2018-04-08T12:14:01.707Z,20.45
2018-04-08T12:15:08.249Z,20.44
2018-04-08T12:16:14.544Z,20.46
2018-04-08T12:17:20.858Z,20.43
2018-04-08T12:18:26.953Z,20.42
2018-04-08T12:19:33.667Z,20.33
2018-04-08T12:20:39.944Z,20.16
2018-04-08T12:21:46.013Z,20.26
2018-04-08T12:22:52.195Z,20.39
2018-04-08T12:23:58.293Z,20.46
2018-04-08T12:25:04.408Z,20.51
2018-04-08T12:26:10.409Z,20.42
2018-04-08T12:27:16.992Z,20.43
2018-04-08T12:28:23.131Z,20.59
2018-04-08T12:29:29.944Z,20.61
2018-04-08T12:30:35.984Z,20.55
2018-04-08T12:31:42.164Z,20.38
2018-04-08T12:32:49.541Z,20.37
2018-04-08T12:33:56.438Z,20.38
2018-04-08T12:35:02.671Z,20.49
2018-04-08T12:36:08.987Z,20.61
2018-04-08T12:37:15.942Z,20.81
2018-04-08T12:38:22.220Z,20.92
2018-04-08T12:39:28.537Z,20.76
2018-04-08T12:40:34.632Z,20.73
2018-04-08T12:41:40.930Z,20.69
2018-04-08T12:42:47.167Z,20.61
2018-04-08T12:43:53.480Z,20.54
2018-04-08T12:45:00.304Z,20.58
2018-04-08T12:46:07.837Z,20.68
2018-04-08T12:47:14.156Z,20.67
2018-04-08T12:48:20.473Z,20.68
2018-04-08T12:49:26.640Z,20.76
2018-04-08T12:50:32.650Z,20.79
2018-04-08T12:51:39.076Z,20.72
2018-04-08T12:52:45.512Z,20.79
2018-04-08T12:53:51.291Z,20.77
2018-04-08T12:54:57.273Z,20.77
2018-04-08T12:56:03.533Z,20.73
2018-04-08T12:57:09.828Z,20.70
2018-04-08T12:58:16.139Z,20.77
2018-04-08T12:59:22.419Z,20.70
2018-04-08T13:00:28.685Z,20.66
2018-04-08T13:01:35.174Z,20.58
2018-04-08T13:02:41.255Z,20.52
2018-04-08T13:03:47.535Z,20.56
2018-04-08T13:04:53.806Z,20.53
2018-04-08T13:06:00.127Z,20.71
2018-04-08T13:07:06.203Z,20.82
2018-04-08T13:08:12.540Z,20.96
2018-04-08T13:09:18.856Z,21.15
2018-04-08T13:10:25.168Z,21.22
2018-04-08T13:11:31.510Z,21.17
2018-04-08T13:12:37.560Z,21.03
2018-04-08T13:13:43.555Z,21.03
2018-04-08T13:14:49.783Z,21.11
2018-04-08T13:15:55.788Z,21.09
2018-04-08T13:17:02.019Z,20.91
2018-04-08T13:18:08.617Z,20.66
2018-04-08T13:19:14.820Z,20.68
2018-04-08T13:20:20.896Z,20.67
2018-04-08T13:21:27.027Z,20.72
2018-04-08T13:22:33.307Z,20.72
2018-04-08T13:23:39.586Z,20.79
2018-04-08T13:24:45.912Z,20.86
2018-04-08T13:26:00.073Z,20.86
2018-04-08T13:27:07.119Z,20.76
2018-04-08T13:28:13.426Z,20.82
2018-04-08T13:29:19.741Z,20.98
2018-04-08T13:30:26.080Z,21.11
2018-04-08T13:31:32.372Z,21.12
2018-04-08T13:32:38.673Z,20.97
2018-04-08T13:33:44.986Z,20.84
2018-04-08T13:34:51.016Z,20.92
2018-04-08T13:35:57.912Z,21.03
2018-04-08T13:37:04.230Z,21.16
2018-04-08T13:38:11.144Z,21.27
2018-04-08T13:39:17.247Z,21.23
2018-04-08T13:40:23.320Z,21.32
2018-04-08T13:41:29.678Z,21.19
2018-04-08T13:42:36.031Z,20.87
2018-04-08T13:43:42.415Z,20.67
2018-04-08T13:44:48.691Z,20.47
2018-04-08T13:45:54.971Z,20.33
2018-04-08T13:47:01.347Z,20.35
2018-04-08T13:48:07.651Z,20.61
2018-04-08T13:49:13.974Z,20.76
2018-04-08T13:50:20.892Z,20.83
2018-04-08T13:51:27.189Z,20.92
2018-04-08T13:52:33.227Z,20.90
2018-04-08T13:53:39.568Z,20.83
2018-04-08T13:54:45.840Z,20.91
2018-04-08T13:55:52.136Z,20.89
2018-04-08T13:56:58.464Z,20.91
2018-04-08T13:58:04.864Z,20.95
2018-04-08T13:59:11.187Z,20.99
2018-04-08T14:00:17.502Z,21.03
2018-04-08T14:01:23.616Z,20.99
2018-04-08T14:02:29.901Z,20.64
2018-04-08T14:03:36.234Z,20.43
2018-04-08T14:04:42.604Z,20.26
2018-04-08T14:05:48.953Z,20.26
2018-04-08T14:06:55.416Z,20.17
2018-04-08T14:08:01.792Z,20.25
2018-04-08T14:09:08.130Z,20.28
2018-04-08T14:10:14.720Z,20.15
2018-04-08T14:11:21.018Z,20.22
2018-04-08T14:12:27.442Z,20.28
2018-04-08T14:13:34.671Z,20.38
2018-04-08T14:14:40.991Z,20.39
2018-04-08T14:15:47.299Z,20.30
2018-04-08T14:16:54.181Z,20.28
2018-04-08T14:18:00.438Z,20.25
2018-04-08T14:19:06.752Z,20.23
2018-04-08T14:20:13.166Z,20.21
2018-04-08T14:21:19.465Z,20.28
2018-04-08T14:22:25.785Z,20.48
2018-04-08T14:23:32.102Z,20.35
2018-04-08T14:24:38.650Z,20.38
2018-04-08T14:25:44.923Z,20.29
2018-04-08T14:26:51.236Z,20.31
2018-04-08T14:27:57.557Z,20.30
2018-04-08T14:29:03.860Z,20.26
2018-04-08T14:30:10.184Z,20.33
2018-04-08T14:31:16.600Z,20.49
2018-04-08T14:32:22.914Z,20.48
2018-04-08T14:33:28.988Z,20.17
2018-04-08T14:34:35.307Z,20.01
2018-04-08T14:35:41.338Z,20.00
2018-04-08T14:36:50.803Z,20.16
2018-04-08T14:37:56.764Z,20.31
2018-04-08T14:39:02.903Z,20.49
2018-04-08T14:40:08.892Z,20.62
2018-04-08T14:41:15.116Z,20.68
2018-04-08T14:42:21.253Z,20.77
2018-04-08T14:43:27.543Z,20.60
2018-04-08T14:44:33.875Z,20.55
2018-04-08T14:45:39.944Z,20.58
2018-04-08T14:46:46.285Z,20.56